Time;durP1;ratioP1;P1;durP2;ratioP2;P2;SDS_P1;SDS_P2;PMS_P1;PMS_P2;Temp;Humidity;BMP_temperature;BMP_pressure;BME280_temperature;BME280_humidity;BME280_pressure;Samples;Min_cycle;Max_cycle;Signal;HPM_P1;HPM_P2
2021/12/06 00:00:36;;;;;;;8.65;2.17;;;9.10;99.90;;;;;;5035667;28;20032;-73
2021/12/06 00:03:05;;;;;;;7.15;2.05;;;9.00;99.90;;;;;;5037089;28;20095;-73
2021/12/06 00:05:32;;;;;;;4.50;1.67;;;9.00;99.90;;;;;;5036951;28;20499;-73
2021/12/06 00:07:57;;;;;;;4.85;1.60;;;9.10;99.90;;;;;;5037276;28;20462;-72
2021/12/06 00:10:23;;;;;;;5.55;1.73;;;9.00;99.90;;;;;;5037227;28;20025;-72
2021/12/06 00:12:49;;;;;;;12.95;2.47;;;9.00;99.90;;;;;;5036903;28;20026;-72
2021/12/06 00:15:15;;;;;;;9.23;2.33;;;9.00;99.90;;;;;;5036835;28;20025;-71
2021/12/06 00:17:41;;;;;;;6.68;2.20;;;9.00;99.90;;;;;;5018945;28;20397;-73
2021/12/06 00:20:09;;;;;;;8.45;2.00;;;9.00;99.90;;;;;;5037032;28;20029;-73
2021/12/06 00:22:35;;;;;;;9.40;1.85;;;9.00;99.90;;;;;;5036705;28;20029;-72
2021/12/06 00:25:01;;;;;;;10.82;1.88;;;8.90;99.90;;;;;;5036640;28;20029;-72
2021/12/06 00:27:27;;;;;;;11.52;2.55;;;9.00;99.90;;;;;;5036621;28;20061;-72
2021/12/06 00:29:53;;;;;;;8.65;2.10;;;8.90;99.90;;;;;;5036615;28;20028;-72
2021/12/06 00:32:20;;;;;;;9.05;1.92;;;8.90;99.90;;;;;;5036524;28;20021;-73
2021/12/06 00:34:46;;;;;;;6.97;2.15;;;8.90;99.90;;;;;;5036694;28;20108;-73
2021/12/06 00:37:21;;;;;;;6.55;2.03;;;8.90;99.90;;;;;;5036443;28;20546;-72
2021/12/06 00:39:51;;;;;;;7.18;2.20;;;8.90;99.90;;;;;;5036648;28;20108;-72
2021/12/06 00:42:19;;;;;;;9.73;2.03;;;8.90;99.90;;;;;;5036532;28;20021;-73
2021/12/06 00:44:45;;;;;;;9.80;2.08;;;8.90;99.90;;;;;;5036458;28;20033;-72
2021/12/06 00:47:11;;;;;;;6.68;3.03;;;8.80;99.90;;;;;;5036252;28;20101;-72
2021/12/06 00:49:36;;;;;;;12.43;2.72;;;8.90;99.90;;;;;;5036192;28;20125;-72
2021/12/06 00:52:04;;;;;;;7.13;2.17;;;8.80;99.90;;;;;;5036433;28;20032;-72
2021/12/06 00:54:34;;;;;;;8.35;2.20;;;8.90;99.90;;;;;;5036102;28;20029;-72
2021/12/06 00:57:01;;;;;;;10.85;2.30;;;8.80;99.90;;;;;;5018350;28;20022;-73
2021/12/06 00:59:26;;;;;;;8.40;1.95;;;8.80;99.90;;;;;;5036500;28;20024;-72
2021/12/06 01:01:54;;;;;;;11.95;2.13;;;8.80;99.90;;;;;;5035991;28;20098;-72
2021/12/06 01:04:20;;;;;;;9.10;1.85;;;8.80;99.90;;;;;;5036496;28;20478;-73
2021/12/06 01:06:46;;;;;;;9.60;2.13;;;8.80;99.90;;;;;;5035846;28;20022;-72
2021/12/06 01:09:11;;;;;;;5.40;1.83;;;8.80;99.90;;;;;;5035857;28;20489;-73
2021/12/06 01:11:37;;;;;;;10.43;2.22;;;8.80;99.90;;;;;;5034769;28;20020;-73
2021/12/06 01:14:03;;;;;;;10.60;2.28;;;8.80;99.90;;;;;;5036053;28;20021;-73
2021/12/06 01:16:29;;;;;;;6.88;1.83;;;8.80;99.90;;;;;;5035703;28;20108;-72
2021/12/06 01:18:55;;;;;;;5.60;2.05;;;8.80;99.90;;;;;;5035393;28;20067;-73
2021/12/06 01:21:32;;;;;;;9.15;2.20;;;8.80;99.90;;;;;;5035898;28;20100;-72
2021/12/06 01:24:00;;;;;;;10.07;2.20;;;8.80;99.90;;;;;;5017538;28;20037;-73
2021/12/06 01:26:45;;;;;;;7.95;2.20;;;8.80;99.90;;;;;;5035485;28;20483;-72
2021/12/06 01:32:11;;;;;;;7.97;1.80;;;8.80;99.90;;;;;;5035696;28;20156;-73
2021/12/06 01:40:07;;;;;;;9.70;1.80;;;8.80;99.90;;;;;;5035601;28;20040;-73
2021/12/06 01:42:33;;;;;;;8.50;2.25;;;8.80;99.90;;;;;;5035218;28;20013;-73
2021/12/06 01:44:59;;;;;;;6.35;1.88;;;8.80;99.90;;;;;;5035078;28;20036;-72
2021/12/06 01:47:31;;;;;;;4.82;1.55;;;8.80;99.90;;;;;;5035388;28;20029;-73
2021/12/06 01:50:01;;;;;;;9.70;1.85;;;8.80;99.90;;;;;;5035100;28;20032;-72
2021/12/06 01:52:31;;;;;;;9.98;1.80;;;8.80;99.90;;;;;;5035362;28;20026;-73
2021/12/06 01:54:59;;;;;;;11.95;1.73;;;8.80;99.90;;;;;;5035305;28;20033;-73
2021/12/06 01:57:27;;;;;;;6.95;2.30;;;8.80;99.90;;;;;;5034938;28;20068;-72
2021/12/06 01:59:54;;;;;;;7.40;1.67;;;8.80;99.90;;;;;;5034956;28;20030;-73
2021/12/06 02:02:21;;;;;;;6.50;2.17;;;8.80;99.90;;;;;;5034874;28;20470;-73
2021/12/06 02:04:47;;;;;;;5.43;1.92;;;8.80;99.90;;;;;;5016981;28;20462;-72
2021/12/06 02:07:16;;;;;;;6.32;1.77;;;8.90;99.90;;;;;;5034785;28;20087;-72
2021/12/06 02:09:44;;;;;;;7.85;2.45;;;8.80;99.90;;;;;;5034702;28;20374;-73
2021/12/06 02:12:11;;;;;;;5.47;2.28;;;8.80;99.90;;;;;;5034962;28;20032;-73
2021/12/06 02:15:02;;;;;;;9.27;2.40;;;8.80;99.90;;;;;;5034679;28;20032;-72
2021/12/06 02:17:32;;;;;;;6.40;2.30;;;8.80;99.90;;;;;;5016540;28;20429;-72
2021/12/06 02:20:05;;;;;;;6.68;2.05;;;8.70;99.90;;;;;;5034376;28;20091;-73
2021/12/06 02:22:34;;;;;;;8.52;2.40;;;8.70;99.90;;;;;;5034877;28;20076;-73
2021/12/06 02:25:06;;;;;;;10.52;2.92;;;8.60;99.90;;;;;;5034354;28;20040;-72
2021/12/06 02:27:32;;;;;;;8.00;2.85;;;8.60;99.90;;;;;;5016566;28;20406;-72
2021/12/06 02:30:04;;;;;;;8.10;2.78;;;8.60;99.90;;;;;;5034497;28;20049;-72
2021/12/06 02:32:30;;;;;;;8.88;2.55;;;8.50;99.90;;;;;;5016255;28;20386;-72
2021/12/06 02:34:57;;;;;;;9.48;2.60;;;8.50;99.90;;;;;;5034263;28;20057;-72
2021/12/06 02:37:28;;;;;;;9.68;2.95;;;8.50;99.90;;;;;;5034178;28;20022;-72
2021/12/06 02:39:54;;;;;;;7.72;3.20;;;8.50;99.90;;;;;;5034533;28;20080;-72
2021/12/06 02:42:20;;;;;;;9.07;3.42;;;8.50;99.90;;;;;;5034371;28;20057;-72
2021/12/06 02:44:47;;;;;;;8.30;3.72;;;8.50;99.90;;;;;;5034227;28;20049;-73
2021/12/06 02:47:14;;;;;;;13.55;4.35;;;8.50;99.90;;;;;;5034559;28;20072;-72
2021/12/06 02:49:40;;;;;;;8.95;3.80;;;8.40;99.90;;;;;;5034235;28;20454;-73
2021/12/06 02:52:06;;;;;;;13.60;4.22;;;8.40;99.90;;;;;;5033913;28;20032;-72
2021/12/06 02:54:34;;;;;;;8.68;4.53;;;8.30;99.90;;;;;;5033892;28;20030;-72
2021/12/06 02:59:40;;;;;;;9.18;4.05;;;8.20;99.90;;;;;;5033532;28;20071;-73
2021/12/06 03:02:10;;;;;;;12.82;4.30;;;8.10;99.90;;;;;;5033705;28;20072;-72
2021/12/06 03:04:37;;;;;;;10.63;4.05;;;8.10;99.90;;;;;;5015886;28;20397;-73
2021/12/06 03:07:04;;;;;;;12.95;4.32;;;8.10;99.90;;;;;;5033650;28;20026;-72
2021/12/06 03:09:37;;;;;;;12.10;4.15;;;8.10;99.90;;;;;;5034183;28;20021;-72
2021/12/06 03:12:10;;;;;;;8.32;3.70;;;8.00;99.90;;;;;;5034213;28;20108;-73
2021/12/06 03:14:49;;;;;;;10.57;3.90;;;8.00;99.90;;;;;;5034132;28;20025;-73
2021/12/06 03:17:17;;;;;;;10.05;3.83;;;7.90;99.90;;;;;;5033543;28;20033;-72
2021/12/06 03:19:44;;;;;;;10.38;4.15;;;7.80;99.90;;;;;;5033116;28;20100;-72
2021/12/06 03:22:12;;;;;;;6.28;3.35;;;7.80;99.90;;;;;;5033424;28;20588;-72
2021/12/06 03:24:38;;;;;;;11.02;3.72;;;7.60;99.90;;;;;;5033320;28;20076;-72
2021/12/06 03:27:05;;;;;;;11.48;4.90;;;7.50;99.90;;;;;;5033398;28;20018;-72
2021/12/06 03:29:31;;;;;;;12.10;3.97;;;7.50;99.90;;;;;;5033350;28;20084;-73
2021/12/06 03:31:57;;;;;;;7.45;3.90;;;7.40;99.90;;;;;;5033380;28;20021;-73
2021/12/06 03:34:26;;;;;;;9.70;3.55;;;7.30;99.90;;;;;;5032706;28;20447;-73
2021/12/06 03:36:53;;;;;;;14.23;3.58;;;7.20;99.90;;;;;;5033542;28;20028;-73
2021/12/06 03:39:27;;;;;;;9.15;3.55;;;7.20;99.90;;;;;;5033264;28;20076;-72
2021/12/06 03:41:58;;;;;;;9.60;2.92;;;7.10;99.90;;;;;;5033486;28;20026;-72
2021/12/06 03:44:24;;;;;;;8.65;3.10;;;7.10;99.90;;;;;;5033527;28;20039;-71
2021/12/06 03:46:55;;;;;;;11.80;3.30;;;7.10;99.90;;;;;;5033676;28;20068;-73
2021/12/06 03:49:21;;;;;;;9.15;3.85;;;7.10;99.90;;;;;;5033502;28;20452;-72
2021/12/06 03:51:48;;;;;;;6.65;3.00;;;7.10;99.90;;;;;;5033176;28;20060;-72
2021/12/06 03:54:18;;;;;;;12.43;3.53;;;7.10;99.90;;;;;;5033122;28;20018;-73
2021/12/06 03:56:44;;;;;;;9.80;3.50;;;7.10;99.90;;;;;;5033673;28;20574;-73
2021/12/06 03:59:10;;;;;;;10.27;3.33;;;7.10;99.90;;;;;;5033110;28;20115;-73
2021/12/06 04:01:36;;;;;;;10.25;3.97;;;7.10;99.90;;;;;;5033330;28;20032;-73
2021/12/06 04:04:03;;;;;;;8.20;2.92;;;7.10;99.90;;;;;;5033045;28;20032;-72
2021/12/06 04:06:29;;;;;;;7.15;2.92;;;7.00;99.90;;;;;;5032833;28;20478;-73
2021/12/06 04:08:55;;;;;;;9.52;4.05;;;7.00;99.90;;;;;;5032980;28;20026;-72
2021/12/06 04:11:22;;;;;;;10.65;3.53;;;6.90;99.90;;;;;;5033544;28;20076;-73
2021/12/06 04:13:48;;;;;;;9.98;4.68;;;6.90;99.90;;;;;;5032971;28;20029;-72
2021/12/06 04:16:14;;;;;;;10.63;3.53;;;6.90;99.90;;;;;;5032932;28;20391;-73
2021/12/06 04:18:39;;;;;;;7.10;3.20;;;6.90;99.90;;;;;;5032720;28;20111;-72
2021/12/06 04:21:06;;;;;;;8.20;3.30;;;6.90;99.90;;;;;;5033187;28;20038;-72
2021/12/06 04:23:33;;;;;;;7.90;3.03;;;6.90;99.90;;;;;;5032867;28;20100;-72
2021/12/06 04:25:59;;;;;;;5.97;3.13;;;6.90;99.90;;;;;;5032799;28;20486;-72
2021/12/06 04:28:24;;;;;;;12.57;3.13;;;6.90;99.90;;;;;;5032817;28;20026;-73
2021/12/06 04:30:51;;;;;;;5.55;2.45;;;6.90;99.90;;;;;;5033089;28;20028;-73
2021/12/06 04:33:17;;;;;;;11.98;3.00;;;6.90;99.90;;;;;;5032715;28;20056;-72
2021/12/06 04:35:44;;;;;;;15.40;2.58;;;6.90;99.90;;;;;;5032754;28;20107;-72
2021/12/06 04:38:10;;;;;;;8.93;3.00;;;6.90;99.90;;;;;;5032988;28;20025;-72
2021/12/06 04:40:37;;;;;;;6.72;2.22;;;6.90;99.90;;;;;;5032697;28;20481;-72
2021/12/06 04:43:04;;;;;;;10.48;2.92;;;6.90;99.90;;;;;;5032542;28;20149;-72
2021/12/06 04:45:30;;;;;;;9.70;2.47;;;6.90;99.90;;;;;;5033570;28;20029;-72
2021/12/06 04:47:56;;;;;;;10.15;2.35;;;7.00;99.90;;;;;;5036246;28;20052;-73
2021/12/06 04:50:25;;;;;;;6.75;2.08;;;7.00;99.90;;;;;;5036536;28;20100;-73
2021/12/06 04:52:54;;;;;;;9.85;2.72;;;7.00;99.90;;;;;;5036185;28;20128;-73
2021/12/06 04:55:47;;;;;;;11.55;2.65;;;7.10;99.90;;;;;;5036158;28;20044;-73
2021/12/06 04:58:21;;;;;;;6.47;2.13;;;7.10;99.90;;;;;;5036437;28;20025;-73
2021/12/06 05:01:00;;;;;;;10.00;2.67;;;7.20;99.90;;;;;;5036617;28;20033;-73
2021/12/06 05:03:26;;;;;;;9.75;2.47;;;7.20;99.90;;;;;;5036335;28;20509;-72
2021/12/06 05:05:58;;;;;;;12.88;2.40;;;7.30;99.90;;;;;;5035874;28;20036;-72
2021/12/06 05:08:30;;;;;;;6.53;2.47;;;7.20;99.90;;;;;;5036221;28;20026;-73
2021/12/06 05:10:58;;;;;;;11.43;2.53;;;7.20;99.90;;;;;;5035828;28;20053;-72
2021/12/06 05:13:26;;;;;;;11.02;3.10;;;7.20;99.90;;;;;;5035706;28;20084;-72
2021/12/06 05:15:52;;;;;;;9.57;2.20;;;7.20;99.90;;;;;;5035737;28;20379;-73
2021/12/06 05:18:18;;;;;;;9.73;2.47;;;7.30;99.90;;;;;;5035544;28;20099;-73
2021/12/06 05:20:44;;;;;;;6.15;2.10;;;7.30;99.90;;;;;;5035663;28;20032;-72
2021/12/06 05:23:11;;;;;;;7.10;2.42;;;7.30;99.90;;;;;;5035897;28;20445;-73
2021/12/06 05:25:37;;;;;;;6.43;2.50;;;7.30;99.90;;;;;;5035500;28;20048;-71
2021/12/06 05:28:04;;;;;;;16.10;4.40;;;7.30;99.90;;;;;;5035517;28;20021;-72
2021/12/06 05:30:31;;;;;;;7.68;2.60;;;7.30;99.90;;;;;;5035507;28;20117;-73
2021/12/06 05:32:59;;;;;;;9.35;2.65;;;7.30;99.90;;;;;;5035406;28;20071;-73
2021/12/06 05:35:26;;;;;;;10.27;2.35;;;7.40;99.90;;;;;;5035397;28;20030;-72
2021/12/06 05:37:54;;;;;;;6.65;1.88;;;7.40;99.90;;;;;;5035334;28;20056;-73
2021/12/06 05:40:24;;;;;;;12.88;2.45;;;7.40;99.90;;;;;;5035348;28;20455;-72
2021/12/06 05:42:49;;;;;;;6.68;1.95;;;7.40;99.90;;;;;;5035313;28;20021;-72
2021/12/06 05:45:18;;;;;;;9.13;2.30;;;7.40;99.90;;;;;;5035691;28;20075;-73
2021/12/06 05:47:43;;;;;;;10.73;2.53;;;7.40;99.90;;;;;;5035179;28;20029;-72
2021/12/06 05:50:10;;;;;;;8.32;2.60;;;7.50;99.90;;;;;;5035119;28;20516;-73
2021/12/06 05:52:35;;;;;;;12.95;2.92;;;7.40;99.90;;;;;;5035628;28;20013;-72
2021/12/06 05:55:04;;;;;;;8.52;2.70;;;7.40;99.90;;;;;;5035596;28;20036;-72
2021/12/06 05:57:30;;;;;;;9.10;2.58;;;7.50;99.90;;;;;;5034433;28;20362;-73
2021/12/06 05:59:56;;;;;;;8.75;3.05;;;7.50;99.90;;;;;;5034966;28;20033;-73
2021/12/06 06:02:22;;;;;;;10.95;5.28;;;7.50;99.90;;;;;;5035154;28;20551;-73
2021/12/06 06:04:49;;;;;;;18.05;7.85;;;7.50;99.90;;;;;;5035029;28;20079;-72
2021/12/06 06:07:15;;;;;;;23.08;7.57;;;7.50;99.90;;;;;;5035019;28;20037;-71
2021/12/06 06:09:41;;;;;;;13.02;5.88;;;7.50;99.90;;;;;;5034773;28;20466;-73
2021/12/06 06:12:07;;;;;;;11.82;3.88;;;7.50;99.90;;;;;;5035279;28;20044;-72
2021/12/06 06:14:33;;;;;;;12.27;2.90;;;7.50;99.90;;;;;;5034702;28;20022;-74
2021/12/06 06:17:08;;;;;;;10.73;2.90;;;7.50;99.90;;;;;;5034911;28;20029;-73
2021/12/06 06:19:35;;;;;;;24.48;8.27;;;7.50;99.90;;;;;;5034502;28;20054;-73
2021/12/06 06:22:01;;;;;;;29.00;17.38;;;7.50;99.90;;;;;;5034545;28;20021;-72
2021/12/06 06:24:27;;;;;;;25.00;11.90;;;7.60;99.90;;;;;;5034486;28;20033;-73
2021/12/06 06:26:52;;;;;;;12.60;7.45;;;7.60;99.90;;;;;;5034589;28;20536;-72
2021/12/06 06:29:18;;;;;;;10.98;4.28;;;7.60;99.90;;;;;;5034611;28;20022;-72
2021/12/06 06:31:44;;;;;;;11.15;4.15;;;7.60;99.90;;;;;;5034626;28;20049;-72
2021/12/06 06:34:10;;;;;;;10.70;3.38;;;7.60;99.90;;;;;;5034323;28;20029;-73
2021/12/06 06:36:35;;;;;;;9.07;3.50;;;7.60;99.90;;;;;;5034234;28;20072;-72
2021/12/06 06:39:05;;;;;;;11.98;4.68;;;7.60;99.90;;;;;;5034226;28;20028;-73
2021/12/06 06:41:31;;;;;;;11.50;5.00;;;7.60;99.90;;;;;;5034172;28;20478;-72
2021/12/06 06:43:58;;;;;;;14.68;5.20;;;7.60;99.90;;;;;;5033979;28;20272;-73
2021/12/06 06:46:24;;;;;;;9.93;3.00;;;7.60;99.90;;;;;;5034214;28;20466;-72
2021/12/06 06:48:50;;;;;;;9.27;3.13;;;7.50;99.90;;;;;;5034030;28;20018;-72
2021/12/06 06:51:15;;;;;;;9.35;4.20;;;7.60;99.90;;;;;;5033905;28;20032;-73
2021/12/06 06:53:41;;;;;;;15.40;6.78;;;7.70;99.90;;;;;;5033946;28;20432;-72
2021/12/06 06:56:07;;;;;;;20.80;11.68;;;7.70;99.90;;;;;;5033910;28;20033;-73
2021/12/06 06:58:32;;;;;;;10.60;5.30;;;7.70;99.90;;;;;;5034133;28;20048;-73
2021/12/06 07:00:58;;;;;;;11.43;3.03;;;7.70;99.90;;;;;;5033769;28;20099;-73
2021/12/06 07:03:24;;;;;;;7.72;3.15;;;7.80;99.90;;;;;;5033747;28;20036;-73
2021/12/06 07:05:50;;;;;;;11.60;4.97;;;7.70;99.90;;;;;;5033856;28;20127;-73
2021/12/06 07:08:16;;;;;;;12.32;6.32;;;7.70;99.90;;;;;;5033711;28;20477;-72
2021/12/06 07:10:42;;;;;;;13.40;5.85;;;7.70;99.90;;;;;;5033372;28;20100;-73
2021/12/06 07:13:11;;;;;;;11.13;3.22;;;7.70;99.90;;;;;;5034146;28;20014;-72
2021/12/06 07:15:37;;;;;;;7.40;2.65;;;7.60;99.90;;;;;;5033816;28;20022;-74
2021/12/06 07:18:04;;;;;;;15.43;3.50;;;7.60;99.90;;;;;;5033399;28;20041;-72
2021/12/06 07:20:32;;;;;;;12.70;2.75;;;7.70;99.90;;;;;;5033862;28;20061;-73
2021/12/06 07:22:58;;;;;;;11.77;3.55;;;7.70;99.90;;;;;;5033457;28;20018;-72
2021/12/06 07:25:24;;;;;;;12.73;3.00;;;7.70;99.90;;;;;;5033344;28;20040;-73
2021/12/06 07:27:52;;;;;;;6.97;1.90;;;7.70;99.90;;;;;;5033392;28;20021;-73
2021/12/06 07:30:18;;;;;;;5.88;2.10;;;7.70;99.90;;;;;;5033909;28;20025;-72
2021/12/06 07:32:44;;;;;;;8.82;2.42;;;7.70;99.90;;;;;;5033378;28;20013;-73
2021/12/06 07:35:11;;;;;;;6.47;2.50;;;7.70;99.90;;;;;;5033373;28;20030;-72
2021/12/06 07:37:38;;;;;;;7.95;2.22;;;7.70;99.90;;;;;;5033281;28;20026;-73
2021/12/06 07:40:07;;;;;;;10.40;3.45;;;7.70;99.90;;;;;;5033289;28;20428;-73
2021/12/06 07:42:34;;;;;;;16.98;6.60;;;7.70;99.90;;;;;;5033108;28;20164;-72
2021/12/06 07:45:00;;;;;;;7.55;2.80;;;7.70;99.90;;;;;;5033181;28;20072;-73
2021/12/06 07:47:26;;;;;;;10.68;5.07;;;7.70;99.90;;;;;;5033451;28;20100;-72
2021/12/06 07:49:52;;;;;;;13.95;3.30;;;7.70;99.90;;;;;;5044897;28;20511;-77
2021/12/06 07:52:17;;;;;;;9.65;3.15;;;7.70;99.90;;;;;;5045970;28;20425;-80
2021/12/06 07:54:43;;;;;;;7.78;1.85;;;7.80;99.90;;;;;;5044959;28;20108;-77
2021/12/06 07:57:09;;;;;;;9.52;3.03;;;7.80;99.90;;;;;;5032963;28;20125;-76
2021/12/06 07:59:38;;;;;;;14.00;4.30;;;7.80;99.90;;;;;;5048410;28;20489;-80
2021/12/06 08:02:06;;;;;;;10.52;3.80;;;7.90;99.90;;;;;;5048345;28;20013;-79
2021/12/06 08:04:32;;;;;;;7.75;3.00;;;7.80;99.90;;;;;;5051683;28;20075;-78
2021/12/06 08:06:58;;;;;;;10.55;4.60;;;7.90;99.90;;;;;;5042647;28;20497;-81
2021/12/06 08:09:23;;;;;;;10.55;4.93;;;7.90;99.90;;;;;;5033944;28;20029;-77
2021/12/06 08:11:49;;;;;;;7.95;4.20;;;7.90;99.90;;;;;;5037075;28;20025;-81
2021/12/06 08:14:15;;;;;;;10.98;3.88;;;7.90;99.90;;;;;;5032915;28;20096;-75
2021/12/06 08:16:43;;;;;;;9.57;3.95;;;7.90;99.90;;;;;;5016491;28;20037;-79
2021/12/06 08:19:11;;;;;;;16.15;6.15;;;7.90;99.90;;;;;;5044069;28;20072;-77
2021/12/06 08:21:37;;;;;;;11.45;4.30;;;7.90;99.90;;;;;;5051320;28;20481;-79
2021/12/06 08:24:03;;;;;;;9.88;3.35;;;7.90;99.90;;;;;;5038551;28;20032;-81
2021/12/06 08:26:33;;;;;;;9.02;3.45;;;7.90;99.90;;;;;;5036455;28;20026;-79
2021/12/06 08:29:00;;;;;;;8.77;3.10;;;7.90;99.90;;;;;;5040780;28;20481;-82
2021/12/06 08:31:29;;;;;;;9.45;2.95;;;7.90;99.90;;;;;;5025299;28;20016;-75
2021/12/06 08:33:55;;;;;;;7.60;2.50;;;7.80;99.90;;;;;;5039691;28;20024;-78
2021/12/06 08:36:22;;;;;;;8.82;3.42;;;7.80;99.90;;;;;;5045214;28;20025;-76
2021/12/06 08:38:48;;;;;;;7.13;3.40;;;7.80;99.90;;;;;;5043689;28;20612;-83
2021/12/06 08:41:18;;;;;;;12.07;4.05;;;7.90;99.90;;;;;;5043324;28;20629;-78
2021/12/06 08:43:48;;;;;;;7.85;2.25;;;7.90;99.90;;;;;;5042890;28;20025;-83
2021/12/06 08:46:19;;;;;;;11.80;3.53;;;8.00;99.90;;;;;;5036209;28;20026;-78
2021/12/06 08:48:47;;;;;;;8.10;2.65;;;8.00;99.90;;;;;;5047410;28;20041;-83
2021/12/06 08:51:26;;;;;;;9.70;2.55;;;8.10;99.90;;;;;;5054221;28;20098;-77
2021/12/06 08:53:54;;;;;;;8.73;2.15;;;8.10;99.90;;;;;;5047588;28;20092;-78
2021/12/06 08:56:21;;;;;;;10.95;2.33;;;8.10;99.90;;;;;;5036028;28;20025;-78
2021/12/06 08:58:47;;;;;;;8.20;2.20;;;8.00;99.90;;;;;;5037313;28;20032;-79
2021/12/06 09:01:13;;;;;;;11.48;2.85;;;7.90;99.90;;;;;;5052280;28;20025;-75
2021/12/06 09:03:39;;;;;;;6.55;2.25;;;7.90;99.90;;;;;;5046246;28;20511;-77
2021/12/06 09:06:08;;;;;;;6.78;2.35;;;8.00;99.90;;;;;;5044620;28;20056;-79
2021/12/06 09:08:35;;;;;;;11.07;2.40;;;8.00;99.90;;;;;;5049283;28;20024;-79
2021/12/06 09:11:02;;;;;;;11.15;2.28;;;8.10;99.90;;;;;;5054425;28;20057;-79
2021/12/06 09:13:29;;;;;;;7.00;2.70;;;8.10;99.90;;;;;;5046167;28;20068;-81
2021/12/06 09:15:59;;;;;;;9.10;2.47;;;8.00;99.90;;;;;;5045973;28;20060;-77
2021/12/06 09:18:25;;;;;;;10.10;2.50;;;8.00;99.90;;;;;;5047952;28;20045;-80
2021/12/06 09:20:52;;;;;;;9.15;3.17;;;8.10;99.90;;;;;;5041182;28;20029;-80
2021/12/06 09:23:18;;;;;;;7.25;2.33;;;8.20;99.90;;;;;;5054355;28;20029;-79
2021/12/06 09:25:45;;;;;;;11.80;2.97;;;8.30;99.90;;;;;;5046447;28;20079;-80
2021/12/06 09:28:13;;;;;;;11.20;2.85;;;8.50;99.90;;;;;;5049078;28;20032;-78
2021/12/06 09:30:39;;;;;;;10.75;2.80;;;8.60;99.90;;;;;;5045324;28;20100;-76
2021/12/06 09:33:09;;;;;;;8.10;2.58;;;8.60;99.90;;;;;;5043809;28;20098;-77
2021/12/06 09:35:38;;;;;;;10.45;2.58;;;8.60;99.90;;;;;;5044632;28;20029;-75
2021/12/06 09:38:05;;;;;;;11.07;2.80;;;8.50;99.90;;;;;;5046499;28;20053;-78
2021/12/06 09:40:35;;;;;;;5.13;1.95;;;8.50;99.90;;;;;;5043846;28;20022;-79
2021/12/06 09:43:03;;;;;;;9.45;3.17;;;8.60;99.90;;;;;;5044320;28;20378;-76
2021/12/06 09:45:34;;;;;;;9.05;2.70;;;8.50;99.90;;;;;;5045124;28;20422;-74
2021/12/06 09:48:03;;;;;;;9.25;2.60;;;8.50;99.90;;;;;;5043446;28;20071;-76
2021/12/06 09:50:47;;;;;;;10.10;2.05;;;8.50;99.90;;;;;;5048166;28;20066;-76
2021/12/06 09:53:16;;;;;;;8.73;2.50;;;8.60;99.90;;;;;;5053954;28;20045;-76
2021/12/06 09:55:44;;;;;;;10.47;3.60;;;8.50;99.90;;;;;;5035496;28;20077;-74
2021/12/06 09:58:10;;;;;;;6.90;1.98;;;8.50;99.90;;;;;;5040116;28;20047;-76
2021/12/06 10:00:41;;;;;;;8.45;2.60;;;8.50;99.90;;;;;;5049906;28;20107;-72
2021/12/06 10:03:07;;;;;;;8.63;2.10;;;8.50;99.90;;;;;;5044651;28;20025;-72
2021/12/06 10:05:33;;;;;;;8.35;1.98;;;8.50;99.90;;;;;;5035165;28;20029;-75
2021/12/06 10:08:00;;;;;;;9.57;2.20;;;8.50;99.90;;;;;;5035071;28;20470;-73
2021/12/06 10:10:28;;;;;;;9.75;2.33;;;8.50;99.90;;;;;;5040663;28;20416;-73
2021/12/06 10:12:55;;;;;;;6.38;1.90;;;8.50;99.90;;;;;;5049209;28;20521;-74
2021/12/06 10:15:25;;;;;;;5.50;1.90;;;8.60;99.90;;;;;;5035063;28;20485;-76
2021/12/06 10:17:55;;;;;;;9.55;2.58;;;8.50;99.90;;;;;;5034658;28;20450;-73
2021/12/06 10:20:23;;;;;;;5.97;1.70;;;8.50;99.90;;;;;;5035326;28;20542;-74
2021/12/06 10:22:50;;;;;;;9.05;2.20;;;8.50;99.90;;;;;;5034622;28;20482;-75
2021/12/06 10:25:16;;;;;;;11.05;2.10;;;8.50;99.90;;;;;;5043267;28;20409;-76
2021/12/06 10:27:56;;;;;;;11.10;2.55;;;8.50;99.90;;;;;;5048303;28;20021;-73
2021/12/06 10:30:24;;;;;;;8.57;2.70;;;8.50;99.90;;;;;;5050020;28;20021;-75
2021/12/06 10:33:01;;;;;;;9.63;2.30;;;8.50;99.90;;;;;;5049906;28;20504;-72
2021/12/06 10:35:27;;;;;;;13.85;2.72;;;8.50;99.90;;;;;;5053247;28;20023;-74
2021/12/06 10:37:57;;;;;;;9.13;2.80;;;8.50;99.90;;;;;;5054429;28;20116;-75
2021/12/06 10:40:30;;;;;;;7.95;2.58;;;8.40;99.90;;;;;;5053719;28;20021;-73
2021/12/06 10:43:00;;;;;;;10.00;2.38;;;8.50;99.90;;;;;;5051635;28;20053;-74
2021/12/06 10:45:36;;;;;;;9.02;2.30;;;8.40;99.90;;;;;;5049155;28;20031;-78
2021/12/06 10:48:04;;;;;;;9.90;2.20;;;8.40;99.90;;;;;;5050721;28;20551;-76
2021/12/06 10:50:30;;;;;;;12.35;2.25;;;8.40;99.90;;;;;;5047126;28;20025;-72
2021/12/06 10:53:01;;;;;;;9.48;2.30;;;8.50;99.90;;;;;;5048708;28;20032;-75
2021/12/06 10:55:30;;;;;;;12.57;2.40;;;8.50;99.90;;;;;;5052722;28;20021;-76
2021/12/06 10:58:02;;;;;;;7.65;1.83;;;8.50;99.90;;;;;;5027362;28;20486;-76
2021/12/06 11:00:38;;;;;;;14.82;2.67;;;8.60;99.90;;;;;;5046403;28;20029;-75
2021/12/06 11:03:05;;;;;;;9.10;2.25;;;8.60;99.90;;;;;;5051793;28;20107;-79
2021/12/06 11:05:34;;;;;;;7.65;2.35;;;8.70;99.90;;;;;;5046391;28;20454;-75
2021/12/06 11:08:14;;;;;;;9.48;2.40;;;8.70;99.90;;;;;;5047242;28;20033;-76
2021/12/06 11:10:46;;;;;;;7.45;2.35;;;8.80;99.90;;;;;;5047016;28;20028;-76
2021/12/06 11:13:25;;;;;;;10.63;2.38;;;8.90;99.90;;;;;;5051419;28;20036;-76
2021/12/06 11:15:54;;;;;;;6.53;2.40;;;8.90;99.90;;;;;;5046446;28;20021;-74
2021/12/06 11:18:35;;;;;;;9.15;2.50;;;8.90;99.90;;;;;;5046668;28;20064;-74
2021/12/06 11:21:03;;;;;;;8.88;2.50;;;8.90;99.90;;;;;;5041838;28;20032;-74
2021/12/06 11:23:29;;;;;;;9.25;2.70;;;8.90;99.90;;;;;;5027961;28;20400;-75
2021/12/06 11:26:02;;;;;;;9.43;2.38;;;9.00;99.90;;;;;;5044312;28;20063;-78
2021/12/06 11:28:30;;;;;;;7.43;2.50;;;9.00;99.90;;;;;;5026363;28;20155;-77
2021/12/06 11:31:03;;;;;;;14.20;3.50;;;9.00;99.90;;;;;;5045997;28;20373;-77
2021/12/06 11:33:34;;;;;;;11.77;4.82;;;9.00;99.90;;;;;;5049403;28;20025;-78
2021/12/06 11:36:02;;;;;;;8.15;2.97;;;9.00;99.90;;;;;;5052444;28;20075;-73
2021/12/06 11:38:30;;;;;;;12.30;5.88;;;9.10;99.90;;;;;;5052137;28;20066;-73
2021/12/06 11:40:58;;;;;;;12.82;6.38;;;9.10;99.90;;;;;;5053300;28;20040;-73
2021/12/06 11:43:24;;;;;;;11.90;5.55;;;9.10;99.90;;;;;;5053062;28;20025;-72
2021/12/06 11:45:59;;;;;;;16.98;3.75;;;9.10;99.90;;;;;;5052143;28;20159;-73
2021/12/06 11:48:37;;;;;;;12.02;3.88;;;9.20;99.90;;;;;;5051356;28;20397;-72
2021/12/06 11:51:18;;;;;;;6.40;4.30;;;9.20;99.90;;;;;;5051442;28;20036;-72
2021/12/06 11:53:49;;;;;;;13.85;4.82;;;9.20;99.90;;;;;;5033469;28;20021;-73
2021/12/06 11:56:18;;;;;;;;;;;9.20;99.90;;;;;;5054241;28;20122;-72
2021/12/06 11:58:51;;;;;;;13.13;3.97;;;9.20;99.90;;;;;;5055398;28;20384;-72
2021/12/06 12:01:30;;;;;;;9.55;3.53;;;9.30;99.90;;;;;;5056604;28;20032;-72
2021/12/06 12:03:59;;;;;;;6.22;3.33;;;9.30;99.90;;;;;;5057385;28;20123;-72
2021/12/06 12:06:39;;;;;;;12.18;5.13;;;9.40;99.90;;;;;;5057218;28;20505;-73
2021/12/06 12:09:32;;;;;;;9.52;5.20;;;9.50;99.90;;;;;;5057561;28;20029;-73
2021/12/06 12:12:05;;;;;;;10.77;3.45;;;9.60;99.90;;;;;;5057241;28;20025;-73
2021/12/06 12:14:54;;;;;;;11.23;4.07;;;9.60;99.90;;;;;;5056955;28;20478;-73
2021/12/06 12:17:25;;;;;;;11.30;4.05;;;9.60;99.90;;;;;;5056834;28;20017;-74
2021/12/06 12:19:53;;;;;;;11.48;4.95;;;9.60;99.90;;;;;;5058671;28;20103;-73
2021/12/06 12:22:20;;;;;;;11.65;4.22;;;9.70;99.90;;;;;;5056700;28;20114;-72
2021/12/06 12:24:51;;;;;;;10.43;3.10;;;9.70;99.90;;;;;;5056713;28;20029;-72
2021/12/06 12:29:48;;;;;;;7.47;3.65;;;9.70;99.90;;;;;;5056927;28;20032;-73
2021/12/06 12:32:15;;;;;;;9.65;3.70;;;9.70;99.90;;;;;;5057096;28;20067;-72
2021/12/06 12:34:45;;;;;;;11.50;4.05;;;9.80;99.90;;;;;;5056798;28;20025;-73
2021/12/06 12:37:12;;;;;;;;;;;9.90;99.90;;;;;;5056945;28;20048;-73
2021/12/06 12:39:38;;;;;;;7.05;3.33;;;9.90;99.90;;;;;;5056694;28;20367;-72
2021/12/06 12:42:06;;;;;;;6.32;3.75;;;9.90;99.90;;;;;;5056255;28;20025;-72
2021/12/06 12:44:48;;;;;;;9.35;3.78;;;9.90;99.90;;;;;;5056349;28;20025;-73
2021/12/06 12:47:26;;;;;;;9.57;3.88;;;9.80;99.90;;;;;;5056207;28;20075;-72
2021/12/06 12:50:09;;;;;;;5.32;2.90;;;9.80;99.90;;;;;;5056531;28;20025;-73
2021/12/06 12:52:51;;;;;;;7.75;2.47;;;9.80;99.90;;;;;;5056795;28;20029;-73
2021/12/06 12:55:27;;;;;;;5.75;2.78;;;9.90;99.90;;;;;;5056116;28;20029;-73
2021/12/06 12:58:11;;;;;;;6.97;2.92;;;9.90;99.90;;;;;;5056678;28;20056;-74
2021/12/06 13:00:58;;;;;;;4.43;2.35;;;9.80;99.90;;;;;;5055987;28;20442;-72
2021/12/06 13:03:40;;;;;;;5.50;2.40;;;9.90;99.90;;;;;;5056569;28;20481;-73
2021/12/06 13:06:12;;;;;;;5.40;2.92;;;9.90;99.90;;;;;;5055925;28;20025;-72
2021/12/06 13:08:37;;;;;;;7.80;5.03;;;10.00;99.90;;;;;;5055203;28;20036;-73
2021/12/06 13:11:03;;;;;;;7.88;2.80;;;10.10;99.90;;;;;;5055822;28;20021;-73
2021/12/06 13:13:41;;;;;;;3.35;1.77;;;10.00;99.90;;;;;;5055792;28;20021;-72